الصفحة الرئيسية
METAR-TAF:

METAR-TAF

مطار :

لشبونة, البرتغال

مطار لشبونة

دائرة عرض: 38-46N, خط طول: 009-08W, ارتفاع: 114 متر

مراقبة الطقس الحالي

تاريخ ووقت الإصدار 44 دقيقة قبل الساعة 10:30UTC
ريح 13 عقدة من الشمال
درجة الحرارة 14°درجة مئوية
الرطوبة 77%
ضغط 1028 hPa
الرؤية 10 كم أو أكثر
غيوم قليلة على ارتفاع 2000 قدم

METAR: LPPT 171030Z 01013KT 9999 FEW020 14/10 Q1028

زمن: 11:14 (11:14 UTC)

توقعات

تاريخ ووقت الإصدار 6ساعات و 14 دقيقة قبل الساعة 05:00UTC
التوقعات صالحة من17 الساعة 06 UTC إلى 18 الساعة 12 UTC
ريح 10 عقدة من الشمال
الرؤية 10 كم أو أكثر
غيوم متفرقة على ارتفاع 1200 قدم
نظرية الاحتمالات 30% :
مؤقت
من 17 الساعة 06 UTC إلى 17 الساعة 09 UTC
غيوم مفككة على ارتفاع 800 قدم
أصبح
من 17 الساعة 09 UTC إلى 17 الساعة 12 UTC
الرؤية 10 كم أو أكثر
الغيوم لا تقل 1500 م ولا وجود لمزنة ركامية السحاب الأسود

TAF: LPPT 170500Z 1706/1812 36010KT 9999 SCT012 PROB30 TEMPO 1706/1709 BKN008 BECMG 1709/1712 CAVOK

أرصاد الطقس والتوقعات من أكثر من 4000 مطار (تقارير الطقس للمطار METAR والتنبؤ بالطقس بالمطارTAF).

المحطات المتاحة هي النقط الصفراء والحمراء على الخريطة.

حرك المؤشر فوق النقطة لمعرفة اسم المحطة.

ثم انقر لمعرفة أرصاد وتوقعات الطقس.

لتغيير الخارطة: اضغط على الأزرار الخضراء مع رمز الصليب الأسود للتكبير. على الزر الأخضر مع شرطة للتصغير، أو على الأسهم الخضراء للخرائط المجاورة.


METAR-TAF: